sensor_id;sensor_type;location;lat;lon;timestamp;P1;durP1;ratioP1;P2;durP2;ratioP2
46613;SDS011;32338;50.430;6.806;2023-11-19T00:01:31;0.10;;;0.10;;
46613;SDS011;32338;50.430;6.806;2023-11-19T00:03:59;0.50;;;0.20;;
46613;SDS011;32338;50.430;6.806;2023-11-19T00:06:26;0.20;;;0.20;;
46613;SDS011;32338;50.430;6.806;2023-11-19T00:08:53;0.20;;;0.20;;
46613;SDS011;32338;50.430;6.806;2023-11-19T00:11:19;0.20;;;0.20;;
46613;SDS011;32338;50.430;6.806;2023-11-19T00:13:46;0.20;;;0.20;;
46613;SDS011;32338;50.430;6.806;2023-11-19T00:16:13;0.20;;;0.20;;
46613;SDS011;32338;50.430;6.806;2023-11-19T00:18:39;0.43;;;0.20;;
46613;SDS011;32338;50.430;6.806;2023-11-19T00:21:07;0.20;;;0.20;;
46613;SDS011;32338;50.430;6.806;2023-11-19T00:23:35;0.10;;;0.10;;
46613;SDS011;32338;50.430;6.806;2023-11-19T00:26:01;1.60;;;0.25;;
46613;SDS011;32338;50.430;6.806;2023-11-19T00:28:31;0.40;;;0.30;;
46613;SDS011;32338;50.430;6.806;2023-11-19T00:30:58;0.20;;;0.20;;
46613;SDS011;32338;50.430;6.806;2023-11-19T00:33:24;0.30;;;0.20;;
46613;SDS011;32338;50.430;6.806;2023-11-19T00:35:50;0.20;;;0.13;;
46613;SDS011;32338;50.430;6.806;2023-11-19T00:38:18;0.20;;;0.20;;
46613;SDS011;32338;50.430;6.806;2023-11-19T00:40:44;0.50;;;0.50;;
46613;SDS011;32338;50.430;6.806;2023-11-19T00:43:11;0.70;;;0.55;;
46613;SDS011;32338;50.430;6.806;2023-11-19T00:45:38;1.85;;;0.50;;
46613;SDS011;32338;50.430;6.806;2023-11-19T00:48:05;0.30;;;0.30;;
46613;SDS011;32338;50.430;6.806;2023-11-19T00:50:32;0.30;;;0.30;;
46613;SDS011;32338;50.430;6.806;2023-11-19T00:52:58;7.07;;;0.38;;
46613;SDS011;32338;50.430;6.806;2023-11-19T00:55:26;0.30;;;0.30;;
46613;SDS011;32338;50.430;6.806;2023-11-19T00:57:53;0.47;;;0.30;;
46613;SDS011;32338;50.430;6.806;2023-11-19T01:00:21;0.45;;;0.22;;
46613;SDS011;32338;50.430;6.806;2023-11-19T01:02:51;0.40;;;0.40;;
46613;SDS011;32338;50.430;6.806;2023-11-19T01:05:18;0.30;;;0.30;;
46613;SDS011;32338;50.430;6.806;2023-11-19T01:07:46;0.28;;;0.28;;
46613;SDS011;32338;50.430;6.806;2023-11-19T01:10:13;0.28;;;0.28;;
46613;SDS011;32338;50.430;6.806;2023-11-19T01:12:42;1.23;;;0.30;;
46613;SDS011;32338;50.430;6.806;2023-11-19T01:15:09;0.38;;;0.38;;
46613;SDS011;32338;50.430;6.806;2023-11-19T01:17:36;0.30;;;0.25;;
46613;SDS011;32338;50.430;6.806;2023-11-19T01:20:03;0.30;;;0.30;;
46613;SDS011;32338;50.430;6.806;2023-11-19T01:22:31;0.40;;;0.30;;
46613;SDS011;32338;50.430;6.806;2023-11-19T01:24:58;1.27;;;0.40;;
46613;SDS011;32338;50.430;6.806;2023-11-19T01:27:25;0.40;;;0.40;;
46613;SDS011;32338;50.430;6.806;2023-11-19T01:29:53;1.10;;;0.30;;
46613;SDS011;32338;50.430;6.806;2023-11-19T01:32:19;0.30;;;0.30;;
46613;SDS011;32338;50.430;6.806;2023-11-19T01:34:49;0.75;;;0.32;;
46613;SDS011;32338;50.430;6.806;2023-11-19T01:37:15;0.30;;;0.25;;
46613;SDS011;32338;50.430;6.806;2023-11-19T01:39:43;0.88;;;0.30;;
46613;SDS011;32338;50.430;6.806;2023-11-19T01:42:10;0.30;;;0.30;;
46613;SDS011;32338;50.430;6.806;2023-11-19T01:44:37;0.73;;;0.30;;
46613;SDS011;32338;50.430;6.806;2023-11-19T01:47:05;2.60;;;0.20;;
46613;SDS011;32338;50.430;6.806;2023-11-19T01:49:32;0.30;;;0.30;;
46613;SDS011;32338;50.430;6.806;2023-11-19T01:51:59;0.40;;;0.40;;
46613;SDS011;32338;50.430;6.806;2023-11-19T01:54:26;0.50;;;0.20;;
46613;SDS011;32338;50.430;6.806;2023-11-19T01:56:54;0.73;;;0.30;;
46613;SDS011;32338;50.430;6.806;2023-11-19T01:59:23;0.95;;;0.25;;
46613;SDS011;32338;50.430;6.806;2023-11-19T02:01:52;1.20;;;0.30;;
46613;SDS011;32338;50.430;6.806;2023-11-19T02:04:20;0.20;;;0.20;;
46613;SDS011;32338;50.430;6.806;2023-11-19T02:06:48;0.20;;;0.20;;
46613;SDS011;32338;50.430;6.806;2023-11-19T02:09:18;1.00;;;0.20;;
46613;SDS011;32338;50.430;6.806;2023-11-19T02:11:45;0.75;;;0.20;;
46613;SDS011;32338;50.430;6.806;2023-11-19T02:14:14;2.65;;;0.10;;
46613;SDS011;32338;50.430;6.806;2023-11-19T02:16:41;0.77;;;0.13;;
46613;SDS011;32338;50.430;6.806;2023-11-19T02:19:07;0.20;;;0.20;;
46613;SDS011;32338;50.430;6.806;2023-11-19T02:21:37;0.22;;;0.10;;
46613;SDS011;32338;50.430;6.806;2023-11-19T02:24:05;0.20;;;0.20;;
46613;SDS011;32338;50.430;6.806;2023-11-19T02:26:36;0.10;;;0.10;;
46613;SDS011;32338;50.430;6.806;2023-11-19T02:29:07;1.95;;;0.15;;
46613;SDS011;32338;50.430;6.806;2023-11-19T02:31:33;0.20;;;0.20;;
46613;SDS011;32338;50.430;6.806;2023-11-19T02:34:01;1.75;;;0.10;;
46613;SDS011;32338;50.430;6.806;2023-11-19T02:36:27;0.10;;;0.10;;
46613;SDS011;32338;50.430;6.806;2023-11-19T02:38:54;0.10;;;0.10;;
46613;SDS011;32338;50.430;6.806;2023-11-19T02:41:21;0.47;;;0.15;;
46613;SDS011;32338;50.430;6.806;2023-11-19T02:43:47;0.00;;;0.00;;
46613;SDS011;32338;50.430;6.806;2023-11-19T02:46:16;1.27;;;0.10;;
46613;SDS011;32338;50.430;6.806;2023-11-19T02:48:44;0.25;;;0.10;;
46613;SDS011;32338;50.430;6.806;2023-11-19T02:51:11;0.13;;;0.10;;
46613;SDS011;32338;50.430;6.806;2023-11-19T02:53:38;0.73;;;0.13;;
46613;SDS011;32338;50.430;6.806;2023-11-19T02:56:05;1.30;;;0.10;;
46613;SDS011;32338;50.430;6.806;2023-11-19T02:58:40;1.50;;;0.00;;
46613;SDS011;32338;50.430;6.806;2023-11-19T03:01:09;0.60;;;0.10;;
46613;SDS011;32338;50.430;6.806;2023-11-19T03:03:45;0.00;;;0.00;;
46613;SDS011;32338;50.430;6.806;2023-11-19T03:06:14;0.95;;;0.10;;
46613;SDS011;32338;50.430;6.806;2023-11-19T03:08:41;1.48;;;0.10;;
46613;SDS011;32338;50.430;6.806;2023-11-19T03:11:07;4.78;;;0.20;;
46613;SDS011;32338;50.430;6.806;2023-11-19T03:13:34;0.35;;;0.08;;
46613;SDS011;32338;50.430;6.806;2023-11-19T03:16:01;0.60;;;0.10;;
46613;SDS011;32338;50.430;6.806;2023-11-19T03:18:27;0.93;;;0.13;;
46613;SDS011;32338;50.430;6.806;2023-11-19T03:20:55;0.35;;;0.20;;
46613;SDS011;32338;50.430;6.806;2023-11-19T03:23:22;0.52;;;0.20;;
46613;SDS011;32338;50.430;6.806;2023-11-19T03:25:49;0.73;;;0.10;;
46613;SDS011;32338;50.430;6.806;2023-11-19T03:28:16;1.92;;;0.30;;
46613;SDS011;32338;50.430;6.806;2023-11-19T03:30:42;0.82;;;0.20;;
46613;SDS011;32338;50.430;6.806;2023-11-19T03:33:09;0.70;;;0.32;;
46613;SDS011;32338;50.430;6.806;2023-11-19T03:35:35;2.17;;;0.22;;
46613;SDS011;32338;50.430;6.806;2023-11-19T03:38:03;0.32;;;0.32;;
46613;SDS011;32338;50.430;6.806;2023-11-19T03:40:30;3.03;;;0.30;;
46613;SDS011;32338;50.430;6.806;2023-11-19T03:42:56;0.40;;;0.30;;
46613;SDS011;32338;50.430;6.806;2023-11-19T03:45:23;2.65;;;0.50;;
46613;SDS011;32338;50.430;6.806;2023-11-19T03:47:50;0.40;;;0.30;;
46613;SDS011;32338;50.430;6.806;2023-11-19T03:50:16;3.45;;;1.02;;
46613;SDS011;32338;50.430;6.806;2023-11-19T03:52:45;3.40;;;0.80;;
46613;SDS011;32338;50.430;6.806;2023-11-19T03:55:13;6.70;;;0.98;;
46613;SDS011;32338;50.430;6.806;2023-11-19T03:57:39;5.78;;;1.63;;
46613;SDS011;32338;50.430;6.806;2023-11-19T04:00:06;3.63;;;0.70;;
46613;SDS011;32338;50.430;6.806;2023-11-19T04:02:35;4.13;;;0.88;;
46613;SDS011;32338;50.430;6.806;2023-11-19T04:05:01;5.65;;;1.02;;
46613;SDS011;32338;50.430;6.806;2023-11-19T04:07:29;1.60;;;0.90;;
46613;SDS011;32338;50.430;6.806;2023-11-19T04:09:56;5.15;;;1.10;;
46613;SDS011;32338;50.430;6.806;2023-11-19T04:12:24;3.17;;;1.20;;
46613;SDS011;32338;50.430;6.806;2023-11-19T04:14:51;6.20;;;1.10;;
46613;SDS011;32338;50.430;6.806;2023-11-19T04:17:17;7.65;;;1.20;;
46613;SDS011;32338;50.430;6.806;2023-11-19T04:19:44;8.82;;;1.10;;
46613;SDS011;32338;50.430;6.806;2023-11-19T04:22:10;4.45;;;1.02;;
46613;SDS011;32338;50.430;6.806;2023-11-19T04:24:37;4.43;;;1.60;;
46613;SDS011;32338;50.430;6.806;2023-11-19T04:27:04;7.82;;;1.40;;
46613;SDS011;32338;50.430;6.806;2023-11-19T04:29:32;9.68;;;1.20;;
46613;SDS011;32338;50.430;6.806;2023-11-19T04:31:59;12.15;;;1.25;;
46613;SDS011;32338;50.430;6.806;2023-11-19T04:34:26;6.15;;;0.93;;
46613;SDS011;32338;50.430;6.806;2023-11-19T04:36:53;3.75;;;1.00;;
46613;SDS011;32338;50.430;6.806;2023-11-19T04:39:19;8.95;;;1.10;;
46613;SDS011;32338;50.430;6.806;2023-11-19T04:41:46;4.90;;;1.10;;
46613;SDS011;32338;50.430;6.806;2023-11-19T04:44:13;8.82;;;1.23;;
46613;SDS011;32338;50.430;6.806;2023-11-19T04:46:42;9.20;;;1.35;;
46613;SDS011;32338;50.430;6.806;2023-11-19T04:49:09;9.40;;;1.17;;
46613;SDS011;32338;50.430;6.806;2023-11-19T04:51:37;10.07;;;1.17;;
46613;SDS011;32338;50.430;6.806;2023-11-19T04:54:04;7.60;;;0.90;;
46613;SDS011;32338;50.430;6.806;2023-11-19T04:56:31;6.03;;;1.17;;
46613;SDS011;32338;50.430;6.806;2023-11-19T04:58:58;9.93;;;1.35;;
46613;SDS011;32338;50.430;6.806;2023-11-19T05:01:25;4.53;;;1.00;;
46613;SDS011;32338;50.430;6.806;2023-11-19T05:03:52;8.07;;;1.10;;
46613;SDS011;32338;50.430;6.806;2023-11-19T05:06:19;6.05;;;1.08;;
46613;SDS011;32338;50.430;6.806;2023-11-19T05:08:46;6.60;;;1.00;;
46613;SDS011;32338;50.430;6.806;2023-11-19T05:11:12;3.33;;;1.00;;
46613;SDS011;32338;50.430;6.806;2023-11-19T05:13:42;11.38;;;1.10;;
46613;SDS011;32338;50.430;6.806;2023-11-19T05:16:10;8.68;;;1.23;;
46613;SDS011;32338;50.430;6.806;2023-11-19T05:18:39;8.50;;;1.10;;
46613;SDS011;32338;50.430;6.806;2023-11-19T05:21:07;3.90;;;0.90;;
46613;SDS011;32338;50.430;6.806;2023-11-19T05:23:34;5.22;;;1.13;;
46613;SDS011;32338;50.430;6.806;2023-11-19T05:26:00;7.75;;;1.50;;
46613;SDS011;32338;50.430;6.806;2023-11-19T05:28:27;7.88;;;1.48;;
46613;SDS011;32338;50.430;6.806;2023-11-19T05:30:54;8.45;;;1.20;;
46613;SDS011;32338;50.430;6.806;2023-11-19T05:33:20;11.95;;;1.40;;
46613;SDS011;32338;50.430;6.806;2023-11-19T05:35:47;6.93;;;1.00;;
46613;SDS011;32338;50.430;6.806;2023-11-19T05:38:15;8.02;;;1.20;;
46613;SDS011;32338;50.430;6.806;2023-11-19T05:40:41;5.35;;;1.25;;
46613;SDS011;32338;50.430;6.806;2023-11-19T05:43:08;7.70;;;0.95;;
46613;SDS011;32338;50.430;6.806;2023-11-19T05:45:35;10.93;;;1.55;;
46613;SDS011;32338;50.430;6.806;2023-11-19T05:48:02;10.25;;;1.20;;
46613;SDS011;32338;50.430;6.806;2023-11-19T05:50:29;8.75;;;0.93;;
46613;SDS011;32338;50.430;6.806;2023-11-19T05:52:56;7.57;;;1.05;;
46613;SDS011;32338;50.430;6.806;2023-11-19T05:55:24;6.07;;;1.00;;
46613;SDS011;32338;50.430;6.806;2023-11-19T05:57:53;6.18;;;1.13;;
46613;SDS011;32338;50.430;6.806;2023-11-19T06:00:19;7.57;;;0.90;;
46613;SDS011;32338;50.430;6.806;2023-11-19T06:02:46;8.77;;;1.52;;
46613;SDS011;32338;50.430;6.806;2023-11-19T06:05:12;7.10;;;1.25;;
46613;SDS011;32338;50.430;6.806;2023-11-19T06:07:39;7.32;;;0.98;;
46613;SDS011;32338;50.430;6.806;2023-11-19T06:10:06;7.32;;;1.25;;
46613;SDS011;32338;50.430;6.806;2023-11-19T06:12:36;4.60;;;0.80;;
46613;SDS011;32338;50.430;6.806;2023-11-19T06:15:06;7.63;;;1.10;;
46613;SDS011;32338;50.430;6.806;2023-11-19T06:17:34;11.75;;;1.10;;
46613;SDS011;32338;50.430;6.806;2023-11-19T06:20:00;7.50;;;0.98;;
46613;SDS011;32338;50.430;6.806;2023-11-19T06:22:29;9.90;;;1.45;;
46613;SDS011;32338;50.430;6.806;2023-11-19T06:24:56;8.48;;;1.10;;
46613;SDS011;32338;50.430;6.806;2023-11-19T06:27:23;9.20;;;1.13;;
46613;SDS011;32338;50.430;6.806;2023-11-19T06:29:51;7.78;;;1.52;;
46613;SDS011;32338;50.430;6.806;2023-11-19T06:32:18;7.45;;;1.27;;
46613;SDS011;32338;50.430;6.806;2023-11-19T06:34:44;13.30;;;1.67;;
46613;SDS011;32338;50.430;6.806;2023-11-19T06:37:11;12.18;;;1.02;;
46613;SDS011;32338;50.430;6.806;2023-11-19T06:39:38;8.05;;;1.33;;
46613;SDS011;32338;50.430;6.806;2023-11-19T06:42:05;9.10;;;1.05;;
46613;SDS011;32338;50.430;6.806;2023-11-19T06:44:32;13.75;;;1.20;;
46613;SDS011;32338;50.430;6.806;2023-11-19T06:47:00;12.85;;;1.65;;
46613;SDS011;32338;50.430;6.806;2023-11-19T06:49:27;13.02;;;1.55;;
46613;SDS011;32338;50.430;6.806;2023-11-19T06:51:53;12.35;;;1.40;;
46613;SDS011;32338;50.430;6.806;2023-11-19T06:54:20;7.82;;;1.55;;
46613;SDS011;32338;50.430;6.806;2023-11-19T06:56:47;7.15;;;1.40;;
46613;SDS011;32338;50.430;6.806;2023-11-19T06:59:14;19.83;;;1.83;;
46613;SDS011;32338;50.430;6.806;2023-11-19T07:01:41;11.98;;;2.05;;
46613;SDS011;32338;50.430;6.806;2023-11-19T07:04:11;17.05;;;3.08;;
46613;SDS011;32338;50.430;6.806;2023-11-19T07:06:38;19.52;;;1.85;;
46613;SDS011;32338;50.430;6.806;2023-11-19T07:09:06;13.73;;;1.80;;
46613;SDS011;32338;50.430;6.806;2023-11-19T07:11:35;14.77;;;1.55;;
46613;SDS011;32338;50.430;6.806;2023-11-19T07:14:03;15.77;;;1.70;;
46613;SDS011;32338;50.430;6.806;2023-11-19T07:16:31;18.70;;;1.65;;
46613;SDS011;32338;50.430;6.806;2023-11-19T07:18:58;11.80;;;1.33;;
46613;SDS011;32338;50.430;6.806;2023-11-19T07:21:26;11.82;;;1.75;;
46613;SDS011;32338;50.430;6.806;2023-11-19T07:23:54;9.60;;;1.38;;
46613;SDS011;32338;50.430;6.806;2023-11-19T07:26:21;17.45;;;1.98;;
46613;SDS011;32338;50.430;6.806;2023-11-19T07:28:48;15.93;;;1.67;;
46613;SDS011;32338;50.430;6.806;2023-11-19T07:31:14;17.15;;;1.95;;
46613;SDS011;32338;50.430;6.806;2023-11-19T07:33:41;10.77;;;1.10;;
46613;SDS011;32338;50.430;6.806;2023-11-19T07:36:08;10.85;;;1.55;;
46613;SDS011;32338;50.430;6.806;2023-11-19T07:38:36;19.13;;;2.72;;
46613;SDS011;32338;50.430;6.806;2023-11-19T07:41:03;17.77;;;1.85;;
46613;SDS011;32338;50.430;6.806;2023-11-19T07:43:31;17.40;;;2.17;;
46613;SDS011;32338;50.430;6.806;2023-11-19T07:45:58;17.42;;;3.30;;
46613;SDS011;32338;50.430;6.806;2023-11-19T07:48:25;15.02;;;1.55;;
46613;SDS011;32338;50.430;6.806;2023-11-19T07:50:52;18.13;;;2.45;;
46613;SDS011;32338;50.430;6.806;2023-11-19T07:53:19;12.25;;;1.85;;
46613;SDS011;32338;50.430;6.806;2023-11-19T07:55:47;14.60;;;1.85;;
46613;SDS011;32338;50.430;6.806;2023-11-19T07:58:14;9.30;;;1.17;;
46613;SDS011;32338;50.430;6.806;2023-11-19T08:00:40;13.90;;;1.85;;
46613;SDS011;32338;50.430;6.806;2023-11-19T08:03:07;19.85;;;1.92;;
46613;SDS011;32338;50.430;6.806;2023-11-19T08:05:33;16.20;;;1.35;;
46613;SDS011;32338;50.430;6.806;2023-11-19T08:08:00;14.65;;;1.60;;
46613;SDS011;32338;50.430;6.806;2023-11-19T08:10:26;14.23;;;1.65;;
46613;SDS011;32338;50.430;6.806;2023-11-19T08:12:55;19.45;;;2.30;;
46613;SDS011;32338;50.430;6.806;2023-11-19T08:15:21;14.02;;;1.67;;
46613;SDS011;32338;50.430;6.806;2023-11-19T08:17:48;15.25;;;1.60;;
46613;SDS011;32338;50.430;6.806;2023-11-19T08:20:14;15.45;;;1.85;;
46613;SDS011;32338;50.430;6.806;2023-11-19T08:22:41;17.90;;;2.65;;
46613;SDS011;32338;50.430;6.806;2023-11-19T08:25:08;13.30;;;1.48;;
46613;SDS011;32338;50.430;6.806;2023-11-19T08:27:35;12.07;;;1.77;;
46613;SDS011;32338;50.430;6.806;2023-11-19T08:30:03;18.30;;;1.77;;
46613;SDS011;32338;50.430;6.806;2023-11-19T08:32:31;18.98;;;1.65;;
46613;SDS011;32338;50.430;6.806;2023-11-19T08:34:57;14.18;;;1.50;;
46613;SDS011;32338;50.430;6.806;2023-11-19T08:37:24;21.65;;;2.33;;
46613;SDS011;32338;50.430;6.806;2023-11-19T08:39:51;20.08;;;2.10;;
46613;SDS011;32338;50.430;6.806;2023-11-19T08:42:17;13.20;;;1.90;;
46613;SDS011;32338;50.430;6.806;2023-11-19T08:44:46;14.35;;;1.80;;
46613;SDS011;32338;50.430;6.806;2023-11-19T08:47:16;8.00;;;1.45;;
46613;SDS011;32338;50.430;6.806;2023-11-19T08:49:44;21.42;;;2.15;;
46613;SDS011;32338;50.430;6.806;2023-11-19T08:52:10;25.10;;;2.67;;
46613;SDS011;32338;50.430;6.806;2023-11-19T08:54:37;9.52;;;1.92;;
46613;SDS011;32338;50.430;6.806;2023-11-19T08:57:04;18.42;;;1.85;;
46613;SDS011;32338;50.430;6.806;2023-11-19T08:59:32;13.48;;;1.90;;
46613;SDS011;32338;50.430;6.806;2023-11-19T09:01:59;13.55;;;1.52;;
46613;SDS011;32338;50.430;6.806;2023-11-19T09:04:27;13.07;;;1.50;;
46613;SDS011;32338;50.430;6.806;2023-11-19T09:06:53;17.75;;;1.80;;
46613;SDS011;32338;50.430;6.806;2023-11-19T09:09:20;16.58;;;2.05;;
46613;SDS011;32338;50.430;6.806;2023-11-19T09:11:47;11.68;;;1.67;;
46613;SDS011;32338;50.430;6.806;2023-11-19T09:14:13;19.23;;;2.60;;
46613;SDS011;32338;50.430;6.806;2023-11-19T09:16:40;14.75;;;2.58;;
46613;SDS011;32338;50.430;6.806;2023-11-19T09:19:07;17.63;;;2.60;;
46613;SDS011;32338;50.430;6.806;2023-11-19T09:21:35;22.42;;;2.33;;
46613;SDS011;32338;50.430;6.806;2023-11-19T09:24:04;24.02;;;2.47;;
46613;SDS011;32338;50.430;6.806;2023-11-19T09:26:32;19.80;;;1.85;;
46613;SDS011;32338;50.430;6.806;2023-11-19T09:28:59;14.40;;;2.00;;
46613;SDS011;32338;50.430;6.806;2023-11-19T09:31:26;15.65;;;2.22;;
46613;SDS011;32338;50.430;6.806;2023-11-19T09:33:52;17.30;;;1.88;;
46613;SDS011;32338;50.430;6.806;2023-11-19T09:36:19;21.25;;;2.63;;
46613;SDS011;32338;50.430;6.806;2023-11-19T09:38:47;19.50;;;2.58;;
46613;SDS011;32338;50.430;6.806;2023-11-19T09:41:13;15.23;;;1.80;;
46613;SDS011;32338;50.430;6.806;2023-11-19T09:43:40;15.73;;;1.80;;
46613;SDS011;32338;50.430;6.806;2023-11-19T09:46:09;20.02;;;2.42;;
46613;SDS011;32338;50.430;6.806;2023-11-19T09:48:36;21.98;;;2.15;;
46613;SDS011;32338;50.430;6.806;2023-11-19T09:51:05;23.80;;;2.35;;
46613;SDS011;32338;50.430;6.806;2023-11-19T09:53:32;21.38;;;1.90;;
46613;SDS011;32338;50.430;6.806;2023-11-19T09:56:01;23.75;;;2.45;;
46613;SDS011;32338;50.430;6.806;2023-11-19T09:58:28;15.20;;;2.30;;
46613;SDS011;32338;50.430;6.806;2023-11-19T10:00:55;17.52;;;1.98;;
46613;SDS011;32338;50.430;6.806;2023-11-19T10:03:23;15.70;;;1.90;;
46613;SDS011;32338;50.430;6.806;2023-11-19T10:05:50;19.25;;;2.72;;
46613;SDS011;32338;50.430;6.806;2023-11-19T10:08:17;12.80;;;2.30;;
46613;SDS011;32338;50.430;6.806;2023-11-19T10:10:44;14.57;;;2.47;;
46613;SDS011;32338;50.430;6.806;2023-11-19T10:13:12;15.75;;;2.10;;
46613;SDS011;32338;50.430;6.806;2023-11-19T10:15:39;15.90;;;1.63;;
46613;SDS011;32338;50.430;6.806;2023-11-19T10:18:06;16.25;;;2.40;;
46613;SDS011;32338;50.430;6.806;2023-11-19T10:20:36;18.77;;;1.92;;
46613;SDS011;32338;50.430;6.806;2023-11-19T10:23:03;16.40;;;1.83;;
46613;SDS011;32338;50.430;6.806;2023-11-19T10:25:29;11.63;;;2.20;;
46613;SDS011;32338;50.430;6.806;2023-11-19T10:27:56;12.93;;;1.90;;
46613;SDS011;32338;50.430;6.806;2023-11-19T10:30:25;16.88;;;1.70;;
46613;SDS011;32338;50.430;6.806;2023-11-19T10:33:03;16.85;;;1.95;;
46613;SDS011;32338;50.430;6.806;2023-11-19T10:35:31;13.48;;;2.10;;
46613;SDS011;32338;50.430;6.806;2023-11-19T10:37:58;12.23;;;1.80;;
46613;SDS011;32338;50.430;6.806;2023-11-19T10:40:37;11.07;;;1.98;;
46613;SDS011;32338;50.430;6.806;2023-11-19T10:43:05;15.23;;;2.17;;
46613;SDS011;32338;50.430;6.806;2023-11-19T10:45:35;16.63;;;2.00;;
46613;SDS011;32338;50.430;6.806;2023-11-19T10:48:02;20.17;;;2.75;;
46613;SDS011;32338;50.430;6.806;2023-11-19T10:50:31;13.15;;;1.90;;
46613;SDS011;32338;50.430;6.806;2023-11-19T10:52:59;17.58;;;1.80;;
46613;SDS011;32338;50.430;6.806;2023-11-19T10:55:27;20.10;;;2.50;;
46613;SDS011;32338;50.430;6.806;2023-11-19T10:57:55;15.60;;;1.52;;
46613;SDS011;32338;50.430;6.806;2023-11-19T11:00:25;19.35;;;1.73;;
46613;SDS011;32338;50.430;6.806;2023-11-19T11:02:56;12.95;;;1.88;;
46613;SDS011;32338;50.430;6.806;2023-11-19T11:05:27;16.17;;;1.85;;
46613;SDS011;32338;50.430;6.806;2023-11-19T11:07:55;14.05;;;2.10;;
46613;SDS011;32338;50.430;6.806;2023-11-19T11:10:22;18.45;;;1.95;;
46613;SDS011;32338;50.430;6.806;2023-11-19T11:12:52;14.77;;;1.80;;
46613;SDS011;32338;50.430;6.806;2023-11-19T11:15:22;13.32;;;1.90;;
46613;SDS011;32338;50.430;6.806;2023-11-19T11:17:53;20.60;;;2.40;;
46613;SDS011;32338;50.430;6.806;2023-11-19T11:20:26;14.20;;;4.40;;
46613;SDS011;32338;50.430;6.806;2023-11-19T11:22:55;13.27;;;1.60;;
46613;SDS011;32338;50.430;6.806;2023-11-19T11:25:34;8.90;;;2.20;;
46613;SDS011;32338;50.430;6.806;2023-11-19T11:28:17;11.48;;;1.80;;
46613;SDS011;32338;50.430;6.806;2023-11-19T11:31:02;12.75;;;1.67;;
46613;SDS011;32338;50.430;6.806;2023-11-19T11:33:58;19.48;;;2.30;;
46613;SDS011;32338;50.430;6.806;2023-11-19T11:36:37;11.45;;;1.58;;
46613;SDS011;32338;50.430;6.806;2023-11-19T11:39:15;12.25;;;2.00;;
46613;SDS011;32338;50.430;6.806;2023-11-19T11:41:44;13.00;;;1.38;;
46613;SDS011;32338;50.430;6.806;2023-11-19T11:44:10;8.07;;;2.08;;
46613;SDS011;32338;50.430;6.806;2023-11-19T11:46:55;12.88;;;1.70;;
46613;SDS011;32338;50.430;6.806;2023-11-19T11:49:27;15.83;;;2.20;;
46613;SDS011;32338;50.430;6.806;2023-11-19T11:52:02;12.88;;;1.92;;
46613;SDS011;32338;50.430;6.806;2023-11-19T11:54:29;12.57;;;1.98;;
46613;SDS011;32338;50.430;6.806;2023-11-19T11:57:03;14.48;;;1.42;;
46613;SDS011;32338;50.430;6.806;2023-11-19T11:59:41;10.48;;;1.33;;
46613;SDS011;32338;50.430;6.806;2023-11-19T12:02:09;14.40;;;1.70;;
46613;SDS011;32338;50.430;6.806;2023-11-19T12:04:40;10.98;;;2.30;;
46613;SDS011;32338;50.430;6.806;2023-11-19T12:07:08;13.95;;;1.27;;
46613;SDS011;32338;50.430;6.806;2023-11-19T12:09:39;13.88;;;2.15;;
46613;SDS011;32338;50.430;6.806;2023-11-19T12:12:07;16.27;;;2.17;;
46613;SDS011;32338;50.430;6.806;2023-11-19T12:17:40;14.23;;;1.67;;
46613;SDS011;32338;50.430;6.806;2023-11-19T12:20:11;15.30;;;2.10;;
46613;SDS011;32338;50.430;6.806;2023-11-19T12:22:39;18.08;;;2.10;;
46613;SDS011;32338;50.430;6.806;2023-11-19T12:25:07;12.20;;;1.85;;
46613;SDS011;32338;50.430;6.806;2023-11-19T12:27:34;12.75;;;1.50;;
46613;SDS011;32338;50.430;6.806;2023-11-19T12:30:01;11.65;;;1.27;;
46613;SDS011;32338;50.430;6.806;2023-11-19T12:32:37;13.93;;;2.10;;
46613;SDS011;32338;50.430;6.806;2023-11-19T12:35:04;15.43;;;1.90;;
46613;SDS011;32338;50.430;6.806;2023-11-19T12:37:33;14.00;;;1.70;;
46613;SDS011;32338;50.430;6.806;2023-11-19T12:40:00;7.07;;;1.50;;
46613;SDS011;32338;50.430;6.806;2023-11-19T12:42:36;14.77;;;2.05;;
46613;SDS011;32338;50.430;6.806;2023-11-19T12:45:04;15.52;;;1.65;;
46613;SDS011;32338;50.430;6.806;2023-11-19T12:47:31;13.77;;;1.58;;
46613;SDS011;32338;50.430;6.806;2023-11-19T12:49:58;15.98;;;2.33;;
46613;SDS011;32338;50.430;6.806;2023-11-19T12:52:24;11.27;;;1.08;;
46613;SDS011;32338;50.430;6.806;2023-11-19T12:54:53;10.75;;;1.50;;
46613;SDS011;32338;50.430;6.806;2023-11-19T12:57:19;10.52;;;2.10;;
46613;SDS011;32338;50.430;6.806;2023-11-19T12:59:55;13.20;;;1.13;;
46613;SDS011;32338;50.430;6.806;2023-11-19T13:02:22;8.30;;;1.40;;
46613;SDS011;32338;50.430;6.806;2023-11-19T13:04:49;12.93;;;2.17;;
46613;SDS011;32338;50.430;6.806;2023-11-19T13:07:20;15.55;;;2.63;;
46613;SDS011;32338;50.430;6.806;2023-11-19T13:09:46;8.57;;;1.50;;
46613;SDS011;32338;50.430;6.806;2023-11-19T13:12:14;14.30;;;2.95;;
46613;SDS011;32338;50.430;6.806;2023-11-19T13:14:42;9.55;;;1.92;;
46613;SDS011;32338;50.430;6.806;2023-11-19T13:17:12;11.95;;;1.40;;
46613;SDS011;32338;50.430;6.806;2023-11-19T13:19:39;10.63;;;1.52;;
46613;SDS011;32338;50.430;6.806;2023-11-19T13:22:06;10.10;;;1.30;;
46613;SDS011;32338;50.430;6.806;2023-11-19T13:24:33;9.80;;;1.38;;
46613;SDS011;32338;50.430;6.806;2023-11-19T13:27:00;8.60;;;1.35;;
46613;SDS011;32338;50.430;6.806;2023-11-19T13:29:28;10.13;;;1.80;;
46613;SDS011;32338;50.430;6.806;2023-11-19T13:31:54;10.85;;;1.55;;
46613;SDS011;32338;50.430;6.806;2023-11-19T13:34:21;10.07;;;1.50;;
46613;SDS011;32338;50.430;6.806;2023-11-19T13:36:48;13.95;;;1.60;;
46613;SDS011;32338;50.430;6.806;2023-11-19T13:39:14;8.23;;;2.17;;
46613;SDS011;32338;50.430;6.806;2023-11-19T13:41:47;11.85;;;1.52;;
46613;SDS011;32338;50.430;6.806;2023-11-19T13:44:15;10.40;;;1.73;;
46613;SDS011;32338;50.430;6.806;2023-11-19T13:46:44;10.32;;;1.35;;
46613;SDS011;32338;50.430;6.806;2023-11-19T13:49:10;8.48;;;1.35;;
46613;SDS011;32338;50.430;6.806;2023-11-19T13:51:37;15.77;;;2.28;;
46613;SDS011;32338;50.430;6.806;2023-11-19T13:54:04;14.13;;;1.38;;
46613;SDS011;32338;50.430;6.806;2023-11-19T13:56:30;12.85;;;1.50;;
46613;SDS011;32338;50.430;6.806;2023-11-19T13:58:57;12.60;;;1.42;;
46613;SDS011;32338;50.430;6.806;2023-11-19T14:01:24;10.85;;;1.48;;
46613;SDS011;32338;50.430;6.806;2023-11-19T14:03:56;9.95;;;1.58;;
46613;SDS011;32338;50.430;6.806;2023-11-19T14:06:22;7.60;;;1.10;;
46613;SDS011;32338;50.430;6.806;2023-11-19T14:08:49;10.23;;;2.10;;
46613;SDS011;32338;50.430;6.806;2023-11-19T14:11:17;8.43;;;1.35;;
46613;SDS011;32338;50.430;6.806;2023-11-19T14:13:44;9.32;;;1.05;;
46613;SDS011;32338;50.430;6.806;2023-11-19T14:16:11;6.50;;;1.55;;
46613;SDS011;32338;50.430;6.806;2023-11-19T14:18:38;15.13;;;1.70;;
46613;SDS011;32338;50.430;6.806;2023-11-19T14:21:06;12.95;;;1.73;;
46613;SDS011;32338;50.430;6.806;2023-11-19T14:23:32;11.88;;;1.95;;
46613;SDS011;32338;50.430;6.806;2023-11-19T14:25:59;11.90;;;2.15;;
46613;SDS011;32338;50.430;6.806;2023-11-19T14:28:26;8.07;;;1.58;;
46613;SDS011;32338;50.430;6.806;2023-11-19T14:30:52;8.07;;;1.27;;
46613;SDS011;32338;50.430;6.806;2023-11-19T14:33:22;9.80;;;1.42;;
46613;SDS011;32338;50.430;6.806;2023-11-19T14:35:48;10.35;;;1.20;;
46613;SDS011;32338;50.430;6.806;2023-11-19T14:38:16;15.77;;;2.38;;
46613;SDS011;32338;50.430;6.806;2023-11-19T14:40:43;8.95;;;1.10;;
46613;SDS011;32338;50.430;6.806;2023-11-19T14:43:09;11.05;;;1.27;;
46613;SDS011;32338;50.430;6.806;2023-11-19T14:45:36;10.95;;;1.80;;
46613;SDS011;32338;50.430;6.806;2023-11-19T14:48:03;8.75;;;2.00;;